Time;durP1;ratioP1;P1;durP2;ratioP2;P2;SDS_P1;SDS_P2;PMS_P1;PMS_P2;Temp;Humidity;BMP_temperature;BMP_pressure;BME280_temperature;BME280_humidity;BME280_pressure;Samples;Min_cycle;Max_cycle;Signal;HPM_P1;HPM_P2
2024/03/01 00:02:59;;;;;;;1999.90;999.90;;;;;;;8.45;89.22;100114.78;10218435;29;20107;-67
2024/03/01 00:08:02;;;;;;;1999.90;999.90;;;;;;;8.36;91.07;100118.75;10218149;29;20055;-66
2024/03/01 00:13:04;;;;;;;1999.90;999.90;;;;;;;8.36;88.36;100116.97;10218180;29;20126;-66
2024/03/01 00:18:07;;;;;;;1999.90;999.90;;;;;;;8.34;90.61;100115.38;10217922;29;20054;-66
2024/03/01 00:23:09;;;;;;;1999.90;999.90;;;;;;;8.65;91.20;100113.59;10216502;29;20054;-66
2024/03/01 00:28:12;;;;;;;1999.90;999.90;;;;;;;8.34;89.89;100102.34;10216822;29;20079;-66
2024/03/01 00:33:14;;;;;;;1999.90;999.90;;;;;;;8.55;86.86;100101.06;10217333;29;20054;-66
2024/03/01 00:38:17;;;;;;;1999.90;999.90;;;;;;;8.63;88.69;100092.78;10217091;29;20062;-66
2024/03/01 00:43:19;;;;;;;1999.90;999.90;;;;;;;8.36;89.43;100090.88;10216850;29;20054;-66
2024/03/01 00:48:23;;;;;;;1999.90;999.90;;;;;;;8.27;90.58;100081.00;10216708;29;20079;-66
2024/03/01 00:53:25;;;;;;;1999.90;999.90;;;;;;;8.49;89.02;100079.72;10214771;29;20074;-66
2024/03/01 00:58:28;;;;;;;1999.90;999.90;;;;;;;8.49;91.84;100087.56;10216854;29;20079;-66
2024/03/01 01:03:31;;;;;;;1999.90;999.90;;;;;;;8.47;89.33;100076.38;10215135;29;20454;-66
2024/03/01 01:08:33;;;;;;;1999.90;999.90;;;;;;;8.32;90.67;100076.34;10214676;29;20062;-66
2024/03/01 01:13:35;;;;;;;1999.90;999.90;;;;;;;8.55;88.08;100072.38;10214084;29;20077;-66
2024/03/01 01:18:38;;;;;;;1999.90;999.90;;;;;;;8.65;88.57;100071.81;10215031;29;20074;-66
2024/03/01 01:23:40;;;;;;;1999.90;999.90;;;;;;;8.67;88.20;100062.13;10215444;29;20043;-66
2024/03/01 01:28:42;;;;;;;1999.90;999.90;;;;;;;8.67;90.96;100060.34;10214404;29;20066;-66
2024/03/01 01:33:45;;;;;;;1999.90;999.90;;;;;;;8.56;89.86;100049.75;10214082;29;20054;-66
2024/03/01 01:38:47;;;;;;;1999.90;999.90;;;;;;;8.58;87.65;100045.28;10213335;29;20490;-66
2024/03/01 01:43:49;;;;;;;1999.90;999.90;;;;;;;8.29;89.76;100041.78;10214928;29;20044;-66
2024/03/01 01:48:52;;;;;;;1999.90;999.90;;;;;;;8.42;90.10;100037.50;10214878;29;20056;-66
2024/03/01 01:53:54;;;;;;;1999.90;999.90;;;;;;;8.33;90.19;100033.66;10213065;29;20578;-66
2024/03/01 01:58:57;;;;;;;1999.90;999.90;;;;;;;8.37;88.19;100023.88;10214525;29;20451;-66
2024/03/01 02:03:59;;;;;;;1999.90;999.90;;;;;;;8.43;90.50;100022.72;10213925;29;20399;-66
2024/03/01 02:09:12;;;;;;;1999.90;999.90;;;;;;;8.18;90.27;100022.38;10213220;29;20051;-66
2024/03/01 02:14:14;;;;;;;1999.90;999.90;;;;;;;8.13;89.47;100013.16;10216252;29;20566;-66
2024/03/01 02:19:18;;;;;;;1999.90;999.90;;;;;;;8.10;90.06;100010.75;10221862;29;20138;-66
2024/03/01 02:24:21;;;;;;;1999.90;999.90;;;;;;;8.09;91.10;100009.09;10221581;29;20051;-66
2024/03/01 02:29:24;;;;;;;1999.90;999.90;;;;;;;8.04;92.00;99996.31;10205310;29;20106;-66
2024/03/01 02:34:26;;;;;;;1999.90;999.90;;;;;;;7.95;91.54;99984.66;10221763;29;20061;-66
2024/03/01 02:39:29;;;;;;;1999.90;999.90;;;;;;;7.97;90.44;99985.41;10221610;29;20052;-66
2024/03/01 02:44:32;;;;;;;1999.90;999.90;;;;;;;7.63;91.70;99974.38;10220734;29;20044;-66
2024/03/01 02:49:34;;;;;;;1999.90;999.90;;;;;;;7.65;94.50;99966.47;10221224;29;20062;-66
2024/03/01 02:54:36;;;;;;;1999.90;999.90;;;;;;;7.57;93.81;99955.66;10221060;29;20047;-66
2024/03/01 02:59:39;;;;;;;1999.90;999.90;;;;;;;7.34;93.73;99952.59;10219682;29;20134;-66
2024/03/01 03:04:41;;;;;;;1999.90;999.90;;;;;;;7.29;95.67;99948.59;10203153;29;20054;-66
2024/03/01 03:09:44;;;;;;;1999.90;999.90;;;;;;;7.33;96.33;99950.94;10220261;29;20272;-66
2024/03/01 03:14:46;;;;;;;1999.90;999.90;;;;;;;7.23;95.50;99955.81;10219159;29;20043;-66
2024/03/01 03:19:51;;;;;;;1999.90;999.90;;;;;;;7.36;96.15;99957.72;10220097;29;20048;-66
2024/03/01 03:24:53;;;;;;;1999.90;999.90;;;;;;;7.12;97.96;99945.19;10219572;29;20131;-66
2024/03/01 03:29:55;;;;;;;1999.90;999.90;;;;;;;7.04;99.11;99953.44;10219740;29;20059;-66
2024/03/01 03:34:58;;;;;;;1999.90;999.90;;;;;;;7.03;99.76;99956.94;10219717;29;20054;-66
2024/03/01 03:40:00;;;;;;;1999.90;999.90;;;;;;;7.02;100.00;99960.47;10218223;29;20055;-66
2024/03/01 03:45:06;;;;;;;1999.90;999.90;;;;;;;7.12;99.75;99952.16;10219512;29;20058;-66
2024/03/01 03:50:09;;;;;;;1999.90;999.90;;;;;;;7.27;100.00;99966.91;10219500;29;20079;-66
2024/03/01 03:55:11;;;;;;;1999.90;999.90;;;;;;;7.10;100.00;99960.06;10217728;29;20048;-66
2024/03/01 04:00:16;;;;;;;1999.90;999.90;;;;;;;7.29;100.00;99970.25;10218625;29;20051;-66
2024/03/01 04:05:19;;;;;;;1999.90;999.90;;;;;;;7.47;100.00;99967.53;10216656;29;20408;-66
2024/03/01 04:10:22;;;;;;;1999.90;999.90;;;;;;;7.36;100.00;99969.00;10216650;29;20063;-66
2024/03/01 04:15:24;;;;;;;1999.90;999.90;;;;;;;7.47;100.00;99976.19;10216908;29;20047;-66
2024/03/01 04:20:27;;;;;;;1999.90;999.90;;;;;;;7.24;100.00;99980.91;10217254;29;20056;-66
2024/03/01 04:25:29;;;;;;;1999.90;999.90;;;;;;;7.41;100.00;99999.97;10216950;29;20571;-66
2024/03/01 04:30:32;;;;;;;1999.90;999.90;;;;;;;7.53;100.00;100007.09;10217599;29;20062;-66
2024/03/01 04:35:34;;;;;;;1999.90;999.90;;;;;;;7.66;100.00;100050.66;10216569;29;20416;-66
2024/03/01 04:40:43;;;;;;;1999.90;999.90;;;;;;;7.99;100.00;100051.31;10216931;29;20130;-66
2024/03/01 04:45:45;;;;;;;1999.90;999.90;;;;;;;7.82;100.00;100046.25;10215614;29;20484;-66
2024/03/01 04:50:48;;;;;;;1999.90;999.90;;;;;;;7.72;100.00;100051.16;10215886;29;20087;-66
2024/03/01 04:55:50;;;;;;;1999.90;999.90;;;;;;;7.90;100.00;100064.03;10216016;29;20467;-66
2024/03/01 05:00:53;;;;;;;1999.90;999.90;;;;;;;7.71;100.00;100057.28;10215223;29;20052;-66
2024/03/01 05:05:56;;;;;;;1999.90;999.90;;;;;;;7.74;100.00;100067.53;10216671;29;20144;-66
2024/03/01 05:10:58;;;;;;;1999.90;999.90;;;;;;;7.55;100.00;100072.97;10214625;29;20056;-66
2024/03/01 05:16:01;;;;;;;1999.90;999.90;;;;;;;7.46;100.00;100081.28;10215196;29;20468;-66
2024/03/01 05:21:04;;;;;;;1999.90;999.90;;;;;;;7.42;100.00;100095.41;10214499;29;20081;-66
2024/03/01 05:26:06;;;;;;;1999.90;999.90;;;;;;;7.42;100.00;100092.81;10215433;29;20052;-66
2024/03/01 05:31:08;;;;;;;1999.90;999.90;;;;;;;7.32;100.00;100112.47;10213591;29;20052;-66
2024/03/01 05:36:24;;;;;;;1999.90;999.90;;;;;;;7.34;100.00;100128.84;10214655;29;20606;-66
2024/03/01 05:41:27;;;;;;;1999.90;999.90;;;;;;;7.61;100.00;100136.91;10213527;29;20414;-66
2024/03/01 05:46:30;;;;;;;1999.90;999.90;;;;;;;7.31;100.00;100139.41;10213203;29;20480;-66
2024/03/01 05:51:33;;;;;;;1999.90;999.90;;;;;;;7.27;100.00;100140.53;10214134;29;20047;-66
2024/03/01 05:56:35;;;;;;;1999.90;999.90;;;;;;;7.27;100.00;100148.34;10214119;29;20052;-66
2024/03/01 06:01:37;;;;;;;1999.90;999.90;;;;;;;7.44;100.00;100156.91;10212873;29;20106;-66
2024/03/01 06:06:40;;;;;;;1999.90;999.90;;;;;;;7.18;100.00;100167.91;10214747;29;20134;-66
2024/03/01 06:11:42;;;;;;;1999.90;999.90;;;;;;;7.09;100.00;100173.59;10213632;29;20059;-66
2024/03/01 06:16:46;;;;;;;1999.90;999.90;;;;;;;7.01;100.00;100182.66;10214406;29;20052;-66
2024/03/01 06:21:48;;;;;;;1999.90;999.90;;;;;;;6.99;100.00;100199.25;10214291;29;20051;-66
2024/03/01 06:26:54;;;;;;;1999.90;999.90;;;;;;;7.07;100.00;100205.72;10213669;29;20103;-66
2024/03/01 06:31:57;;;;;;;1999.90;999.90;;;;;;;7.40;100.00;100204.88;10213061;29;20058;-66
2024/03/01 06:36:59;;;;;;;1999.90;999.90;;;;;;;7.52;100.00;100210.38;10213425;29;20132;-66
2024/03/01 06:42:01;;;;;;;1999.90;999.90;;;;;;;7.50;100.00;100207.84;10213358;29;20407;-66
2024/03/01 06:47:04;;;;;;;1999.90;999.90;;;;;;;7.34;100.00;100214.78;10212180;29;20056;-66
2024/03/01 06:52:16;;;;;;;1999.90;999.90;;;;;;;7.23;100.00;100217.97;10213792;29;20052;-66
2024/03/01 06:57:18;;;;;;;1999.90;999.90;;;;;;;7.32;100.00;100219.25;10213047;29;20407;-66
2024/03/01 07:02:21;;;;;;;1999.90;999.90;;;;;;;7.60;100.00;100231.63;10201950;29;20051;-66
2024/03/01 07:07:23;;;;;;;1999.90;999.90;;;;;;;7.41;100.00;100235.22;10220515;29;20448;-66
2024/03/01 07:12:26;;;;;;;1999.90;999.90;;;;;;;7.25;100.00;100240.38;10220318;29;20062;-66
2024/03/01 07:17:28;;;;;;;1999.90;999.90;;;;;;;7.18;100.00;100252.03;10219676;29;20099;-66
2024/03/01 07:22:31;;;;;;;1999.90;999.90;;;;;;;7.60;100.00;100248.09;10218883;29;20123;-66
2024/03/01 07:27:34;;;;;;;1999.90;999.90;;;;;;;7.03;100.00;100263.25;10219340;29;20491;-66
2024/03/01 07:32:36;;;;;;;1999.90;999.90;;;;;;;7.30;100.00;100274.00;10219653;29;20061;-66
2024/03/01 07:37:40;;;;;;;1999.90;999.90;;;;;;;7.36;100.00;100278.91;10218319;29;20055;-66
2024/03/01 07:42:42;;;;;;;1999.90;999.90;;;;;;;7.18;100.00;100278.09;10219344;29;20082;-66
2024/03/01 07:47:46;;;;;;;1999.90;999.90;;;;;;;7.49;100.00;100265.22;10219188;29;20055;-66
2024/03/01 07:52:49;;;;;;;1999.90;999.90;;;;;;;7.40;100.00;100262.19;10217831;29;20551;-66
2024/03/01 07:57:51;;;;;;;1999.90;999.90;;;;;;;7.56;100.00;100262.19;10218835;29;20058;-66
2024/03/01 08:03:08;;;;;;;1999.90;999.90;;;;;;;7.58;100.00;100252.56;10218552;29;20047;-66
2024/03/01 08:08:10;;;;;;;1999.90;999.90;;;;;;;7.36;100.00;100260.66;10218242;29;20058;-66
2024/03/01 08:13:14;;;;;;;1999.90;999.90;;;;;;;7.30;100.00;100262.75;10216606;29;20484;-66
2024/03/01 08:18:19;;;;;;;1999.90;999.90;;;;;;;7.93;100.00;100267.19;10216725;29;20388;-66
2024/03/01 08:23:23;;;;;;;1999.90;999.90;;;;;;;7.48;100.00;100264.38;10216601;29;20044;-66
2024/03/01 08:28:31;;;;;;;1999.90;999.90;;;;;;;7.48;100.00;100276.56;10215671;29;20385;-66
2024/03/01 08:33:38;;;;;;;1999.90;999.90;;;;;;;7.93;100.00;100275.84;10216788;29;20107;-66
2024/03/01 08:38:41;;;;;;;1999.90;999.90;;;;;;;8.91;98.46;100266.88;10217324;29;20056;-66
2024/03/01 08:43:43;;;;;;;1999.90;999.90;;;;;;;8.49;93.20;100260.59;10216268;29;20411;-66
2024/03/01 08:48:46;;;;;;;1999.90;999.90;;;;;;;8.44;92.21;100272.22;10216859;29;20111;-66
2024/03/01 09:21:17;;;;;;;1999.90;999.90;;;;;;;9.36;84.01;100297.31;10354186;28;20046;-68
2024/03/01 09:27:24;;;;;;;1999.90;999.90;;;;;;;9.62;86.13;100301.81;10252462;28;20130;-68
2024/03/01 09:32:26;;;;;;;1999.90;999.90;;;;;;;9.88;84.08;100301.13;10254337;29;20134;-68
2024/03/01 09:37:29;;;;;;;1999.90;999.90;;;;;;;12.23;82.39;100302.94;10253833;29;20140;-68
2024/03/01 09:42:51;;;;;;;1999.90;999.90;;;;;;;10.83;76.88;100295.06;10235854;29;20103;-67
2024/03/01 09:48:18;;;;;;;1999.90;999.90;;;;;;;11.32;77.93;100296.97;10236295;29;20059;-67
2024/03/01 09:53:32;;;;;;;1999.90;999.90;;;;;;;13.36;76.28;100280.53;10253511;28;20047;-67
2024/03/01 09:58:37;;;;;;;1999.90;999.90;;;;;;;12.67;71.18;100272.56;10252557;28;20514;-68
2024/03/01 10:03:46;;;;;;;1999.90;999.90;;;;;;;12.42;72.84;100268.28;10252555;29;20055;-68
2024/03/01 10:08:56;;;;;;;1999.90;999.90;;;;;;;11.15;76.08;100266.69;10233780;29;20062;-68
2024/03/01 10:14:22;;;;;;;1999.90;999.90;;;;;;;13.18;71.38;100255.63;10252842;28;20122;-67
2024/03/01 10:19:35;;;;;;;1999.90;999.90;;;;;;;14.34;70.00;100249.97;10253245;28;20077;-68
2024/03/01 10:24:59;;;;;;;1999.90;999.90;;;;;;;14.85;66.22;100240.53;10257528;23;20066;-68
2024/03/01 10:30:21;;;;;;;1999.90;999.90;;;;;;;12.86;69.83;100244.91;10292411;28;20047;-68
2024/03/01 10:35:51;;;;;;;1999.90;999.90;;;;;;;11.88;70.43;100252.03;10277630;28;20050;-67
2024/03/01 10:41:25;;;;;;;1999.90;999.90;;;;;;;12.99;70.32;100240.41;10299885;28;20059;-67
2024/03/01 10:46:39;;;;;;;1999.90;999.90;;;;;;;13.15;67.77;100234.81;10299716;28;20074;-68
2024/03/01 10:52:04;;;;;;;1999.90;999.90;;;;;;;10.76;72.97;100236.19;10282175;28;20047;-67
2024/03/01 10:57:10;;;;;;;1999.90;999.90;;;;;;;11.18;74.63;100228.09;10299331;28;20054;-67
2024/03/01 11:02:23;;;;;;;1999.90;999.90;;;;;;;13.34;71.96;100215.84;10299263;28;20082;-68
2024/03/01 11:07:41;;;;;;;1999.90;999.90;;;;;;;14.45;65.32;100197.22;10266058;28;20528;-68
2024/03/01 11:19:13;;;;;;;1999.90;999.90;;;;;;;14.92;63.27;100161.78;10249527;29;20043;-68
2024/03/01 11:24:23;;;;;;;1999.90;999.90;;;;;;;12.69;62.33;100168.22;10238496;29;20392;-68
2024/03/01 11:29:35;;;;;;;1999.90;999.90;;;;;;;13.85;67.82;100160.06;10254852;29;20075;-68
2024/03/01 11:35:06;;;;;;;1999.90;999.90;;;;;;;14.74;62.78;100151.00;10254389;29;20047;-68
2024/03/01 11:40:10;;;;;;;1999.90;999.90;;;;;;;13.63;62.84;100145.16;10253836;29;20264;-69
2024/03/01 11:45:45;;;;;;;1999.90;999.90;;;;;;;16.01;60.60;100132.91;10253365;28;20055;-69
2024/03/01 11:51:02;;;;;;;1999.90;999.90;;;;;;;16.86;56.05;100110.06;10297617;28;20549;-69
2024/03/01 11:56:11;;;;;;;1999.90;999.90;;;;;;;16.59;56.19;100106.38;10297619;28;20130;-69
2024/03/01 12:01:34;;;;;;;1999.90;999.90;;;;;;;18.67;54.22;100103.81;10297060;28;20458;-69
2024/03/01 12:06:46;;;;;;;1999.90;999.90;;;;;;;18.19;51.25;100087.47;10297095;28;20053;-69
2024/03/01 12:12:06;;;;;;;1999.90;999.90;;;;;;;17.78;55.53;100069.38;10296912;28;20061;-69
2024/03/01 12:17:22;;;;;;;1999.90;999.90;;;;;;;18.19;54.18;100071.56;10311751;28;20057;-69
2024/03/01 12:22:49;;;;;;;1999.90;999.90;;;;;;;19.01;49.65;100066.69;10296318;28;20047;-69
2024/03/01 12:28:08;;;;;;;1999.90;999.90;;;;;;;18.45;55.04;100060.94;10335321;28;20413;-69
2024/03/01 12:33:20;;;;;;;1999.90;999.90;;;;;;;16.26;51.50;100050.44;10336485;28;20047;-69
2024/03/01 12:38:35;;;;;;;1999.90;999.90;;;;;;;15.01;58.58;100047.63;10335744;28;20082;-69
2024/03/01 12:44:00;;;;;;;1999.90;999.90;;;;;;;13.48;59.50;100046.47;10334436;28;20485;-68
2024/03/01 12:49:19;;;;;;;1999.90;999.90;;;;;;;13.80;62.74;100029.81;10335535;28;20549;-69
2024/03/01 12:54:31;;;;;;;1999.90;999.90;;;;;;;13.29;60.58;99997.16;10334410;28;20046;-69
2024/03/01 13:00:14;;;;;;;1999.90;999.90;;;;;;;12.79;60.32;100030.00;10333502;28;20108;-69
2024/03/01 13:05:26;;;;;;;1999.90;999.90;;;;;;;12.44;61.43;100030.13;10334564;28;20046;-69
2024/03/01 13:10:30;;;;;;;1999.90;999.90;;;;;;;12.03;62.92;100036.75;10335003;28;20081;-69
2024/03/01 13:15:46;;;;;;;1999.90;999.90;;;;;;;12.18;62.31;100043.44;10334863;28;20125;-69
2024/03/01 13:21:30;;;;;;;1999.90;999.90;;;;;;;12.42;62.25;100026.75;10333394;28;20125;-69
2024/03/01 13:26:43;;;;;;;1999.90;999.90;;;;;;;12.21;61.38;100037.13;10298062;28;20050;-69
2024/03/01 13:31:59;;;;;;;1999.90;999.90;;;;;;;11.83;62.82;100036.41;10334378;28;20133;-68
2024/03/01 13:37:24;;;;;;;1999.90;999.90;;;;;;;12.22;62.40;100028.28;10333005;28;20050;-68
2024/03/01 13:42:53;;;;;;;1999.90;999.90;;;;;;;12.20;63.61;100036.28;10333019;28;20077;-69
2024/03/01 13:48:09;;;;;;;1999.90;999.90;;;;;;;12.23;62.02;100024.72;10334180;28;20144;-69
2024/03/01 13:53:16;;;;;;;1999.90;999.90;;;;;;;11.76;61.35;100031.75;10333612;28;20113;-69
2024/03/01 13:58:19;;;;;;;1999.90;999.90;;;;;;;11.35;61.73;100041.72;10333827;28;20050;-69
2024/03/01 14:03:21;;;;;;;1999.90;999.90;;;;;;;11.62;61.79;100043.28;10332525;28;20050;-69
2024/03/01 14:08:24;;;;;;;1999.90;999.90;;;;;;;12.49;61.80;100029.75;10333245;28;20086;-68
2024/03/01 14:13:28;;;;;;;1999.90;999.90;;;;;;;11.68;60.76;100027.91;10324138;28;20073;-68
2024/03/01 14:18:31;;;;;;;1999.90;999.90;;;;;;;12.11;60.31;100025.69;10341412;28;20516;-68
2024/03/01 14:23:34;;;;;;;1999.90;999.90;;;;;;;11.95;61.39;100007.63;10339908;28;20054;-68
2024/03/01 14:28:37;;;;;;;1999.90;999.90;;;;;;;11.88;59.49;100000.22;10340608;28;20057;-68
2024/03/01 14:33:57;;;;;;;1999.90;999.90;;;;;;;11.93;61.97;99999.88;10339809;28;20481;-68
2024/03/01 14:38:59;;;;;;;1999.90;999.90;;;;;;;11.81;59.09;99992.91;10339589;28;20054;-69
2024/03/01 14:44:02;;;;;;;1999.90;999.90;;;;;;;11.53;60.30;99997.56;10341031;28;20129;-68
2024/03/01 14:49:25;;;;;;;1999.90;999.90;;;;;;;11.25;60.05;99990.94;10340469;28;20503;-68
2024/03/01 14:54:31;;;;;;;1999.90;999.90;;;;;;;11.36;61.36;99996.19;10323152;28;20050;-69
2024/03/01 14:59:33;;;;;;;1999.90;999.90;;;;;;;11.05;60.12;99997.63;10338828;28;20109;-68
2024/03/01 15:04:36;;;;;;;1999.90;999.90;;;;;;;11.19;61.67;99996.59;10339248;28;20137;-68
2024/03/01 15:09:45;;;;;;;1999.90;999.90;;;;;;;11.19;60.98;100007.09;10322172;28;20058;-68
2024/03/01 15:14:47;;;;;;;1999.90;999.90;;;;;;;10.93;60.44;100008.00;10339227;28;20042;-68
2024/03/01 15:19:51;;;;;;;1999.90;999.90;;;;;;;10.99;60.28;100001.50;10338979;28;20050;-68
2024/03/01 15:25:03;;;;;;;1999.90;999.90;;;;;;;10.95;60.46;99986.97;10338712;28;20526;-68
2024/03/01 15:30:07;;;;;;;1999.90;999.90;;;;;;;11.16;60.78;99992.41;10338917;28;20058;-68
2024/03/01 15:35:09;;;;;;;1999.90;999.90;;;;;;;11.22;60.92;99986.72;10338453;28;20458;-67
2024/03/01 15:40:13;;;;;;;1999.90;999.90;;;;;;;10.96;61.58;99994.72;10338336;28;20058;-68
2024/03/01 15:45:16;;;;;;;1999.90;999.90;;;;;;;10.91;61.99;99986.34;10338220;28;20388;-67
2024/03/01 15:50:18;;;;;;;1999.90;999.90;;;;;;;10.90;62.57;99986.44;10337501;28;20054;-68
2024/03/01 15:55:21;;;;;;;1999.90;999.90;;;;;;;10.65;63.42;99993.41;10338416;28;20445;-67
2024/03/01 16:00:23;;;;;;;1999.90;999.90;;;;;;;10.62;63.00;99988.41;10337843;28;20140;-66
2024/03/01 16:05:26;;;;;;;1999.90;999.90;;;;;;;10.73;63.94;99985.88;10337571;28;20494;-66
2024/03/01 16:10:30;;;;;;;1999.90;999.90;;;;;;;10.49;63.31;99971.88;10337191;28;20058;-68
2024/03/01 16:15:32;;;;;;;1999.90;999.90;;;;;;;10.67;63.10;99967.13;10337348;28;20051;-68
2024/03/01 16:20:35;;;;;;;1999.90;999.90;;;;;;;10.79;64.64;99981.97;10336336;28;20057;-68
2024/03/01 16:25:37;;;;;;;1999.90;999.90;;;;;;;10.66;63.91;99974.16;10336716;28;20060;-68
2024/03/01 16:30:40;;;;;;;1999.90;999.90;;;;;;;10.67;64.45;99969.75;10337070;28;20050;-68
2024/03/01 16:35:46;;;;;;;1999.90;999.90;;;;;;;10.39;65.37;99956.84;10334773;28;20047;-68
2024/03/01 16:40:48;;;;;;;1999.90;999.90;;;;;;;10.43;64.50;99975.78;10335951;28;20055;-68
2024/03/01 16:45:50;;;;;;;1999.90;999.90;;;;;;;10.37;65.53;99974.44;10335585;28;20054;-68
2024/03/01 16:50:53;;;;;;;1999.90;999.90;;;;;;;10.43;66.92;99962.69;10335470;28;20509;-68
2024/03/01 16:56:02;;;;;;;1999.90;999.90;;;;;;;10.26;67.14;99971.69;10335196;28;20078;-68
2024/03/01 17:01:06;;;;;;;1999.90;999.90;;;;;;;10.31;67.31;99982.66;10334119;28;20073;-68
2024/03/01 17:06:09;;;;;;;1999.90;999.90;;;;;;;10.24;66.67;99984.03;10335089;28;20046;-68
2024/03/01 17:11:12;;;;;;;1999.90;999.90;;;;;;;10.25;66.27;99985.69;10333563;28;20509;-68
2024/03/01 17:16:25;;;;;;;1999.90;999.90;;;;;;;10.09;68.22;99988.53;10335285;28;20042;-68
2024/03/01 17:21:28;;;;;;;1999.90;999.90;;;;;;;10.00;67.50;99981.31;10333687;28;20054;-68
2024/03/01 17:26:30;;;;;;;1999.90;999.90;;;;;;;10.01;67.41;99991.66;10308646;28;20111;-68
2024/03/01 17:31:33;;;;;;;1999.90;999.90;;;;;;;9.90;68.65;99996.81;10294232;28;20078;-68
2024/03/01 17:36:35;;;;;;;1999.90;999.90;;;;;;;9.82;68.64;99999.09;10293547;28;20402;-68
2024/03/01 17:41:38;;;;;;;1999.90;999.90;;;;;;;9.81;69.56;99989.56;10293659;28;20133;-68
2024/03/01 17:46:41;;;;;;;1999.90;999.90;;;;;;;9.56;69.59;99987.75;10293455;28;20085;-68
2024/03/01 17:51:43;;;;;;;1999.90;999.90;;;;;;;9.48;70.62;99988.22;10293707;28;20051;-68
2024/03/01 17:56:46;;;;;;;1999.90;999.90;;;;;;;9.52;69.97;100000.19;10293422;28;20054;-68
2024/03/01 18:01:48;;;;;;;1999.90;999.90;;;;;;;9.57;69.75;99999.88;10292178;28;20051;-68
2024/03/01 18:06:51;;;;;;;1999.90;999.90;;;;;;;9.46;71.48;99990.13;10293522;28;20054;-68
2024/03/01 18:11:53;;;;;;;1999.90;999.90;;;;;;;9.16;72.08;99990.34;10293047;28;20058;-68
2024/03/01 18:16:55;;;;;;;1999.90;999.90;;;;;;;9.16;72.48;99999.00;10293033;28;20184;-68
2024/03/01 18:21:58;;;;;;;1999.90;999.90;;;;;;;8.93;73.71;99995.25;10291872;28;20053;-68
2024/03/01 18:27:01;;;;;;;1999.90;999.90;;;;;;;8.90;73.68;100001.50;10307756;28;20051;-68
2024/03/01 18:32:06;;;;;;;1999.90;999.90;;;;;;;9.07;73.64;100005.66;10292931;28;20494;-68
2024/03/01 18:37:09;;;;;;;1999.90;999.90;;;;;;;8.96;73.44;100005.53;10292645;28;20039;-68
2024/03/01 18:42:12;;;;;;;1999.90;999.90;;;;;;;8.94;74.29;99999.53;10291307;28;20106;-68
2024/03/01 18:47:14;;;;;;;1999.90;999.90;;;;;;;9.03;74.23;99991.13;10292240;28;20137;-68
2024/03/01 18:52:17;;;;;;;1999.90;999.90;;;;;;;9.06;74.18;99984.84;10307019;28;20482;-68
2024/03/01 18:57:20;;;;;;;1999.90;999.90;;;;;;;8.98;73.78;99980.16;10296337;28;20047;-68
2024/03/01 19:02:23;;;;;;;1999.90;999.90;;;;;;;8.95;73.73;99977.72;10314104;28;20418;-68
2024/03/01 19:07:30;;;;;;;1999.90;999.90;;;;;;;8.70;74.86;99971.44;10299174;28;20042;-68
2024/03/01 19:12:33;;;;;;;1999.90;999.90;;;;;;;8.50;75.63;99969.25;10299238;28;20130;-68
2024/03/01 19:17:38;;;;;;;1999.90;999.90;;;;;;;8.34;76.23;99969.31;10299170;28;20057;-68
2024/03/01 19:22:40;;;;;;;1999.90;999.90;;;;;;;8.43;76.34;99957.50;10313656;28;20063;-68
2024/03/01 19:27:43;;;;;;;1999.90;999.90;;;;;;;8.30;76.91;99958.22;10336757;28;20405;-68
2024/03/01 19:32:46;;;;;;;1999.90;999.90;;;;;;;8.21;77.57;99966.63;10338602;28;20537;-68
2024/03/01 19:37:48;;;;;;;1999.90;999.90;;;;;;;7.90;79.34;99965.00;10338215;28;20046;-68
2024/03/01 19:42:51;;;;;;;1999.90;999.90;;;;;;;7.48;81.16;99964.00;10338738;28;20050;-68
2024/03/01 19:47:53;;;;;;;1999.90;999.90;;;;;;;7.50;81.22;99967.34;10337874;28;20468;-68
2024/03/01 19:52:56;;;;;;;1999.90;999.90;;;;;;;7.41;81.78;99963.50;10337160;28;20085;-68
2024/03/01 19:58:00;;;;;;;1999.90;999.90;;;;;;;7.44;81.53;99963.34;10337771;28;20153;-68
2024/03/01 20:03:02;;;;;;;1999.90;999.90;;;;;;;7.61;80.94;99962.34;10337889;28;20062;-68
2024/03/01 20:08:05;;;;;;;1999.90;999.90;;;;;;;7.79;81.64;99960.44;10337430;28;20054;-68
2024/03/01 20:13:07;;;;;;;1999.90;999.90;;;;;;;7.86;80.02;99953.09;10337079;28;20594;-68
2024/03/01 20:18:10;;;;;;;1999.90;999.90;;;;;;;7.81;78.80;99948.16;10337133;28;20056;-68
2024/03/01 20:23:13;;;;;;;1999.90;999.90;;;;;;;7.88;78.55;99944.25;10336304;28;20152;-68
2024/03/01 20:28:15;;;;;;;1999.90;999.90;;;;;;;7.85;78.90;99935.78;10336569;28;20469;-68
2024/03/01 20:33:17;;;;;;;1999.90;999.90;;;;;;;7.84;78.56;99929.72;10318964;28;20457;-68
2024/03/01 20:38:20;;;;;;;1999.90;999.90;;;;;;;7.87;78.24;99933.91;10336037;28;20053;-68
2024/03/01 20:43:22;;;;;;;1999.90;999.90;;;;;;;7.68;77.73;99921.97;10336002;28;20081;-68
2024/03/01 20:48:25;;;;;;;1999.90;999.90;;;;;;;7.74;77.89;99926.84;10335821;28;20399;-68
2024/03/01 20:53:27;;;;;;;1999.90;999.90;;;;;;;7.90;76.81;99915.47;10335987;28;20047;-68
2024/03/01 20:58:29;;;;;;;1999.90;999.90;;;;;;;8.02;75.83;99906.09;10335215;28;20125;-68
2024/03/01 21:03:32;;;;;;;1999.90;999.90;;;;;;;7.96;77.44;99915.94;10335530;28;20057;-68
2024/03/01 21:08:35;;;;;;;1999.90;999.90;;;;;;;7.92;76.48;99906.66;10335040;28;20479;-68
2024/03/01 21:13:38;;;;;;;1999.90;999.90;;;;;;;8.29;75.48;99898.34;10334774;28;20053;-68
2024/03/01 21:18:40;;;;;;;1999.90;999.90;;;;;;;8.17;75.50;99897.34;10334640;28;20054;-68
2024/03/01 21:23:42;;;;;;;1999.90;999.90;;;;;;;8.21;74.59;99898.00;10334072;28;20569;-68
2024/03/01 21:28:45;;;;;;;1999.90;999.90;;;;;;;8.22;74.81;99878.78;10334144;28;20043;-68
2024/03/01 21:33:48;;;;;;;1999.90;999.90;;;;;;;8.19;75.26;99883.25;10334034;28;20046;-68
2024/03/01 21:38:51;;;;;;;1999.90;999.90;;;;;;;8.27;75.01;99874.97;10334573;28;20057;-68
2024/03/01 21:43:55;;;;;;;1999.90;999.90;;;;;;;8.11;75.76;99869.84;10334143;28;20181;-68
2024/03/01 21:48:59;;;;;;;1999.90;999.90;;;;;;;8.21;75.69;99861.47;10333780;28;20425;-68
2024/03/01 21:54:01;;;;;;;1999.90;999.90;;;;;;;8.25;76.29;99845.53;10333917;28;20453;-68
2024/03/01 21:59:04;;;;;;;1999.90;999.90;;;;;;;8.47;75.61;99842.44;10316258;28;20046;-68
2024/03/01 22:04:07;;;;;;;1999.90;999.90;;;;;;;8.31;75.63;99839.94;10333216;28;20077;-68
2024/03/01 22:09:10;;;;;;;1999.90;999.90;;;;;;;8.24;75.66;99819.53;10333109;28;20085;-68
2024/03/01 22:14:15;;;;;;;1999.90;999.90;;;;;;;8.31;76.31;99818.25;10333511;28;20125;-68
2024/03/01 22:19:17;;;;;;;1999.90;999.90;;;;;;;8.42;75.50;99805.34;10333158;28;20052;-68
2024/03/01 22:24:20;;;;;;;1999.90;999.90;;;;;;;8.48;75.56;99810.19;10332993;28;20413;-68
2024/03/01 22:29:22;;;;;;;1999.90;999.90;;;;;;;8.42;75.42;99804.50;10332966;28;20054;-68
2024/03/01 22:34:24;;;;;;;1999.90;999.90;;;;;;;8.43;75.34;99801.84;10340131;28;20401;-68
2024/03/01 22:39:27;;;;;;;1999.90;999.90;;;;;;;8.36;76.07;99818.78;10337029;23;20047;-66
2024/03/01 22:44:30;;;;;;;1999.90;999.90;;;;;;;8.38;75.67;99799.47;10300252;28;20046;-66
2024/03/01 22:49:32;;;;;;;1999.90;999.90;;;;;;;8.24;76.43;99801.28;10299999;28;20129;-66
2024/03/01 22:54:35;;;;;;;1999.90;999.90;;;;;;;8.27;75.63;99807.19;10300162;28;20082;-67
2024/03/01 22:59:47;;;;;;;1999.90;999.90;;;;;;;8.24;75.91;99802.16;10300098;28;20047;-67